sensor_id;sensor_type;location;lat;lon;timestamp;P1;durP1;ratioP1;P2;durP2;ratioP2
10114;SDS011;5097;43.260;27.812;2022-12-10T00:01:55;31.87;;;23.40;;
10114;SDS011;5097;43.260;27.812;2022-12-10T00:04:39;39.87;;;24.13;;
10114;SDS011;5097;43.260;27.812;2022-12-10T00:07:30;38.50;;;23.97;;
10114;SDS011;5097;43.260;27.812;2022-12-10T00:10:15;34.70;;;24.10;;
10114;SDS011;5097;43.260;27.812;2022-12-10T00:12:59;37.83;;;21.93;;
10114;SDS011;5097;43.260;27.812;2022-12-10T00:15:43;42.83;;;24.50;;
10114;SDS011;5097;43.260;27.812;2022-12-10T00:18:28;39.50;;;25.13;;
10114;SDS011;5097;43.260;27.812;2022-12-10T00:21:13;41.83;;;30.07;;
10114;SDS011;5097;43.260;27.812;2022-12-10T00:23:58;43.67;;;25.93;;
10114;SDS011;5097;43.260;27.812;2022-12-10T00:26:44;35.10;;;24.87;;
10114;SDS011;5097;43.260;27.812;2022-12-10T00:29:28;35.77;;;22.90;;
10114;SDS011;5097;43.260;27.812;2022-12-10T00:32:12;34.80;;;23.87;;
10114;SDS011;5097;43.260;27.812;2022-12-10T00:34:56;32.87;;;23.00;;
10114;SDS011;5097;43.260;27.812;2022-12-10T00:37:40;41.43;;;23.80;;
10114;SDS011;5097;43.260;27.812;2022-12-10T00:40:24;38.70;;;22.07;;
10114;SDS011;5097;43.260;27.812;2022-12-10T00:43:09;35.10;;;23.07;;
10114;SDS011;5097;43.260;27.812;2022-12-10T00:45:53;35.77;;;22.10;;
10114;SDS011;5097;43.260;27.812;2022-12-10T00:48:37;29.00;;;22.40;;
10114;SDS011;5097;43.260;27.812;2022-12-10T00:51:22;40.17;;;23.33;;
10114;SDS011;5097;43.260;27.812;2022-12-10T00:54:07;36.20;;;22.60;;
10114;SDS011;5097;43.260;27.812;2022-12-10T00:56:53;38.37;;;22.00;;
10114;SDS011;5097;43.260;27.812;2022-12-10T00:59:38;35.30;;;22.00;;
10114;SDS011;5097;43.260;27.812;2022-12-10T01:02:22;32.80;;;22.10;;
10114;SDS011;5097;43.260;27.812;2022-12-10T01:05:07;35.47;;;21.83;;
10114;SDS011;5097;43.260;27.812;2022-12-10T01:07:52;31.23;;;22.70;;
10114;SDS011;5097;43.260;27.812;2022-12-10T01:10:36;36.43;;;24.23;;
10114;SDS011;5097;43.260;27.812;2022-12-10T01:13:21;38.53;;;23.67;;
10114;SDS011;5097;43.260;27.812;2022-12-10T01:16:08;34.03;;;19.33;;
10114;SDS011;5097;43.260;27.812;2022-12-10T01:18:54;36.93;;;22.57;;
10114;SDS011;5097;43.260;27.812;2022-12-10T01:21:39;26.23;;;20.27;;
10114;SDS011;5097;43.260;27.812;2022-12-10T01:24:24;40.13;;;21.50;;
10114;SDS011;5097;43.260;27.812;2022-12-10T01:27:09;34.80;;;20.20;;
10114;SDS011;5097;43.260;27.812;2022-12-10T01:29:53;35.37;;;20.53;;
10114;SDS011;5097;43.260;27.812;2022-12-10T01:32:38;33.67;;;21.03;;
10114;SDS011;5097;43.260;27.812;2022-12-10T01:35:22;30.17;;;19.37;;
10114;SDS011;5097;43.260;27.812;2022-12-10T01:38:06;35.93;;;19.80;;
10114;SDS011;5097;43.260;27.812;2022-12-10T01:40:50;35.17;;;21.03;;
10114;SDS011;5097;43.260;27.812;2022-12-10T01:43:51;34.57;;;19.90;;
10114;SDS011;5097;43.260;27.812;2022-12-10T01:46:38;35.60;;;20.20;;
10114;SDS011;5097;43.260;27.812;2022-12-10T01:49:26;31.07;;;20.77;;
10114;SDS011;5097;43.260;27.812;2022-12-10T01:52:14;36.43;;;22.53;;
10114;SDS011;5097;43.260;27.812;2022-12-10T01:54:58;30.77;;;20.23;;
10114;SDS011;5097;43.260;27.812;2022-12-10T01:57:43;35.43;;;20.83;;
10114;SDS011;5097;43.260;27.812;2022-12-10T02:00:27;35.50;;;20.80;;
10114;SDS011;5097;43.260;27.812;2022-12-10T02:03:13;35.93;;;20.00;;
10114;SDS011;5097;43.260;27.812;2022-12-10T02:06:15;37.33;;;20.90;;
10114;SDS011;5097;43.260;27.812;2022-12-10T02:09:09;37.60;;;21.53;;
10114;SDS011;5097;43.260;27.812;2022-12-10T02:12:06;39.10;;;21.40;;
10114;SDS011;5097;43.260;27.812;2022-12-10T02:14:57;34.87;;;20.93;;
10114;SDS011;5097;43.260;27.812;2022-12-10T02:17:45;41.43;;;23.03;;
10114;SDS011;5097;43.260;27.812;2022-12-10T02:20:33;40.23;;;23.90;;
10114;SDS011;5097;43.260;27.812;2022-12-10T02:23:24;40.53;;;23.67;;
10114;SDS011;5097;43.260;27.812;2022-12-10T02:26:15;34.13;;;22.77;;
10114;SDS011;5097;43.260;27.812;2022-12-10T02:29:08;39.27;;;24.70;;
10114;SDS011;5097;43.260;27.812;2022-12-10T02:31:56;41.23;;;24.37;;
10114;SDS011;5097;43.260;27.812;2022-12-10T02:34:49;36.23;;;23.50;;
10114;SDS011;5097;43.260;27.812;2022-12-10T02:37:36;34.40;;;24.27;;
10114;SDS011;5097;43.260;27.812;2022-12-10T02:40:24;33.03;;;22.03;;
10114;SDS011;5097;43.260;27.812;2022-12-10T02:43:15;40.23;;;23.73;;
10114;SDS011;5097;43.260;27.812;2022-12-10T02:46:02;34.43;;;23.97;;
10114;SDS011;5097;43.260;27.812;2022-12-10T02:48:48;33.87;;;21.00;;
10114;SDS011;5097;43.260;27.812;2022-12-10T02:51:34;37.63;;;22.03;;
10114;SDS011;5097;43.260;27.812;2022-12-10T02:54:33;33.23;;;22.23;;
10114;SDS011;5097;43.260;27.812;2022-12-10T02:57:23;33.50;;;23.13;;
10114;SDS011;5097;43.260;27.812;2022-12-10T03:00:15;41.87;;;23.83;;
10114;SDS011;5097;43.260;27.812;2022-12-10T03:03:20;36.87;;;22.57;;
10114;SDS011;5097;43.260;27.812;2022-12-10T03:06:17;36.97;;;24.03;;
10114;SDS011;5097;43.260;27.812;2022-12-10T03:09:06;43.20;;;27.53;;
10114;SDS011;5097;43.260;27.812;2022-12-10T03:11:55;39.47;;;26.73;;
10114;SDS011;5097;43.260;27.812;2022-12-10T03:14:42;40.57;;;26.93;;
10114;SDS011;5097;43.260;27.812;2022-12-10T03:17:28;37.23;;;22.17;;
10114;SDS011;5097;43.260;27.812;2022-12-10T03:20:16;33.23;;;24.10;;
10114;SDS011;5097;43.260;27.812;2022-12-10T03:23:01;38.63;;;23.97;;
10114;SDS011;5097;43.260;27.812;2022-12-10T03:25:47;37.40;;;23.60;;
10114;SDS011;5097;43.260;27.812;2022-12-10T03:28:33;35.37;;;20.10;;
10114;SDS011;5097;43.260;27.812;2022-12-10T03:31:21;46.00;;;28.70;;
10114;SDS011;5097;43.260;27.812;2022-12-10T03:34:06;69.43;;;38.33;;
10114;SDS011;5097;43.260;27.812;2022-12-10T03:36:54;40.00;;;26.63;;
10114;SDS011;5097;43.260;27.812;2022-12-10T03:39:39;43.00;;;22.27;;
10114;SDS011;5097;43.260;27.812;2022-12-10T03:42:24;38.97;;;20.77;;
10114;SDS011;5097;43.260;27.812;2022-12-10T03:45:08;36.47;;;21.63;;
10114;SDS011;5097;43.260;27.812;2022-12-10T03:47:53;36.77;;;21.57;;
10114;SDS011;5097;43.260;27.812;2022-12-10T03:50:36;35.93;;;21.93;;
10114;SDS011;5097;43.260;27.812;2022-12-10T03:53:22;38.07;;;21.97;;
10114;SDS011;5097;43.260;27.812;2022-12-10T03:56:06;36.43;;;21.77;;
10114;SDS011;5097;43.260;27.812;2022-12-10T03:58:50;42.53;;;25.77;;
10114;SDS011;5097;43.260;27.812;2022-12-10T04:01:34;35.87;;;24.37;;
10114;SDS011;5097;43.260;27.812;2022-12-10T04:04:18;38.43;;;23.00;;
10114;SDS011;5097;43.260;27.812;2022-12-10T04:07:01;38.43;;;21.97;;
10114;SDS011;5097;43.260;27.812;2022-12-10T04:09:47;33.77;;;21.73;;
10114;SDS011;5097;43.260;27.812;2022-12-10T04:12:30;45.63;;;24.40;;
10114;SDS011;5097;43.260;27.812;2022-12-10T04:15:14;45.90;;;28.63;;
10114;SDS011;5097;43.260;27.812;2022-12-10T04:18:15;42.43;;;29.00;;
10114;SDS011;5097;43.260;27.812;2022-12-10T04:20:59;62.63;;;36.53;;
10114;SDS011;5097;43.260;27.812;2022-12-10T04:24:01;59.27;;;39.63;;
10114;SDS011;5097;43.260;27.812;2022-12-10T04:27:04;60.10;;;39.00;;
10114;SDS011;5097;43.260;27.812;2022-12-10T04:29:51;64.87;;;42.40;;
10114;SDS011;5097;43.260;27.812;2022-12-10T04:32:35;71.30;;;43.00;;
10114;SDS011;5097;43.260;27.812;2022-12-10T04:35:18;56.10;;;40.27;;
10114;SDS011;5097;43.260;27.812;2022-12-10T04:38:02;64.80;;;39.50;;
10114;SDS011;5097;43.260;27.812;2022-12-10T04:40:46;59.60;;;39.60;;
10114;SDS011;5097;43.260;27.812;2022-12-10T04:43:31;57.97;;;39.00;;
10114;SDS011;5097;43.260;27.812;2022-12-10T04:46:15;66.50;;;41.33;;
10114;SDS011;5097;43.260;27.812;2022-12-10T04:48:59;64.17;;;41.03;;
10114;SDS011;5097;43.260;27.812;2022-12-10T04:51:43;66.37;;;40.50;;
10114;SDS011;5097;43.260;27.812;2022-12-10T04:54:27;59.23;;;39.10;;
10114;SDS011;5097;43.260;27.812;2022-12-10T04:57:18;56.23;;;34.27;;
10114;SDS011;5097;43.260;27.812;2022-12-10T05:00:03;59.50;;;32.40;;
10114;SDS011;5097;43.260;27.812;2022-12-10T05:02:49;54.37;;;30.07;;
10114;SDS011;5097;43.260;27.812;2022-12-10T05:05:33;42.77;;;30.57;;
10114;SDS011;5097;43.260;27.812;2022-12-10T05:08:17;50.07;;;31.20;;
10114;SDS011;5097;43.260;27.812;2022-12-10T05:11:01;50.10;;;27.50;;
10114;SDS011;5097;43.260;27.812;2022-12-10T05:13:46;38.43;;;26.83;;
10114;SDS011;5097;43.260;27.812;2022-12-10T05:16:32;45.53;;;26.63;;
10114;SDS011;5097;43.260;27.812;2022-12-10T05:19:17;56.50;;;29.83;;
10114;SDS011;5097;43.260;27.812;2022-12-10T05:22:03;43.57;;;28.27;;
10114;SDS011;5097;43.260;27.812;2022-12-10T05:25:04;44.80;;;28.47;;
10114;SDS011;5097;43.260;27.812;2022-12-10T05:27:49;41.50;;;28.43;;
10114;SDS011;5097;43.260;27.812;2022-12-10T05:30:34;51.63;;;30.70;;
10114;SDS011;5097;43.260;27.812;2022-12-10T05:33:19;50.20;;;33.60;;
10114;SDS011;5097;43.260;27.812;2022-12-10T05:36:04;48.50;;;30.57;;
10114;SDS011;5097;43.260;27.812;2022-12-10T05:38:48;48.67;;;30.37;;
10114;SDS011;5097;43.260;27.812;2022-12-10T05:41:34;53.90;;;31.23;;
10114;SDS011;5097;43.260;27.812;2022-12-10T05:44:18;53.10;;;29.83;;
10114;SDS011;5097;43.260;27.812;2022-12-10T05:47:02;46.97;;;28.47;;
10114;SDS011;5097;43.260;27.812;2022-12-10T05:49:48;38.23;;;24.77;;
10114;SDS011;5097;43.260;27.812;2022-12-10T05:52:33;46.77;;;24.70;;
10114;SDS011;5097;43.260;27.812;2022-12-10T05:55:17;48.03;;;26.63;;
10114;SDS011;5097;43.260;27.812;2022-12-10T05:58:01;52.23;;;28.80;;
10114;SDS011;5097;43.260;27.812;2022-12-10T06:00:45;48.13;;;28.93;;
10114;SDS011;5097;43.260;27.812;2022-12-10T06:03:29;49.37;;;28.20;;
10114;SDS011;5097;43.260;27.812;2022-12-10T06:06:14;46.63;;;29.37;;
10114;SDS011;5097;43.260;27.812;2022-12-10T06:09:04;49.40;;;30.57;;
10114;SDS011;5097;43.260;27.812;2022-12-10T06:11:49;47.20;;;29.80;;
10114;SDS011;5097;43.260;27.812;2022-12-10T06:14:33;45.10;;;30.60;;
10114;SDS011;5097;43.260;27.812;2022-12-10T06:17:17;48.73;;;29.70;;
10114;SDS011;5097;43.260;27.812;2022-12-10T06:20:01;46.80;;;30.67;;
10114;SDS011;5097;43.260;27.812;2022-12-10T06:22:46;51.87;;;32.80;;
10114;SDS011;5097;43.260;27.812;2022-12-10T06:25:30;55.07;;;33.37;;
10114;SDS011;5097;43.260;27.812;2022-12-10T06:28:14;52.20;;;33.70;;
10114;SDS011;5097;43.260;27.812;2022-12-10T06:30:57;50.80;;;31.60;;
10114;SDS011;5097;43.260;27.812;2022-12-10T06:33:42;56.80;;;35.30;;
10114;SDS011;5097;43.260;27.812;2022-12-10T06:36:26;60.00;;;36.27;;
10114;SDS011;5097;43.260;27.812;2022-12-10T06:39:11;52.43;;;36.70;;
10114;SDS011;5097;43.260;27.812;2022-12-10T06:41:54;53.53;;;32.30;;
10114;SDS011;5097;43.260;27.812;2022-12-10T06:44:40;51.10;;;31.87;;
10114;SDS011;5097;43.260;27.812;2022-12-10T06:47:24;55.53;;;34.47;;
10114;SDS011;5097;43.260;27.812;2022-12-10T06:50:08;56.13;;;35.60;;
10114;SDS011;5097;43.260;27.812;2022-12-10T06:52:54;48.83;;;33.73;;
10114;SDS011;5097;43.260;27.812;2022-12-10T06:55:39;41.97;;;31.83;;
10114;SDS011;5097;43.260;27.812;2022-12-10T06:58:23;45.17;;;27.53;;
10114;SDS011;5097;43.260;27.812;2022-12-10T07:01:07;42.57;;;24.90;;
10114;SDS011;5097;43.260;27.812;2022-12-10T07:03:52;50.90;;;30.13;;
10114;SDS011;5097;43.260;27.812;2022-12-10T07:06:37;41.07;;;25.07;;
10114;SDS011;5097;43.260;27.812;2022-12-10T07:09:21;41.87;;;25.17;;
10114;SDS011;5097;43.260;27.812;2022-12-10T07:12:07;43.50;;;20.27;;
10114;SDS011;5097;43.260;27.812;2022-12-10T07:14:51;37.47;;;19.70;;
10114;SDS011;5097;43.260;27.812;2022-12-10T07:17:35;37.27;;;19.77;;
10114;SDS011;5097;43.260;27.812;2022-12-10T07:20:19;35.33;;;21.63;;
10114;SDS011;5097;43.260;27.812;2022-12-10T07:23:02;33.83;;;20.67;;
10114;SDS011;5097;43.260;27.812;2022-12-10T07:25:46;29.77;;;18.80;;
10114;SDS011;5097;43.260;27.812;2022-12-10T07:28:32;37.67;;;23.53;;
10114;SDS011;5097;43.260;27.812;2022-12-10T07:31:25;61.67;;;36.47;;
10114;SDS011;5097;43.260;27.812;2022-12-10T07:34:09;63.17;;;46.15;;
10114;SDS011;5097;43.260;27.812;2022-12-10T07:36:53;180.73;;;134.13;;
10114;SDS011;5097;43.260;27.812;2022-12-10T07:39:38;109.53;;;73.45;;
10114;SDS011;5097;43.260;27.812;2022-12-10T07:42:22;69.18;;;43.85;;
10114;SDS011;5097;43.260;27.812;2022-12-10T07:45:07;209.13;;;127.05;;
10114;SDS011;5097;43.260;27.812;2022-12-10T07:47:51;105.50;;;60.38;;
10114;SDS011;5097;43.260;27.812;2022-12-10T07:50:35;247.43;;;132.48;;
10114;SDS011;5097;43.260;27.812;2022-12-10T07:53:19;164.15;;;89.80;;
10114;SDS011;5097;43.260;27.812;2022-12-10T07:56:03;64.75;;;41.78;;
10114;SDS011;5097;43.260;27.812;2022-12-10T07:58:48;40.67;;;25.00;;
10114;SDS011;5097;43.260;27.812;2022-12-10T08:01:33;56.30;;;32.70;;
10114;SDS011;5097;43.260;27.812;2022-12-10T08:04:17;46.70;;;28.77;;
10114;SDS011;5097;43.260;27.812;2022-12-10T08:07:01;38.97;;;23.23;;
10114;SDS011;5097;43.260;27.812;2022-12-10T08:09:45;50.30;;;28.67;;
10114;SDS011;5097;43.260;27.812;2022-12-10T08:12:29;30.67;;;21.83;;
10114;SDS011;5097;43.260;27.812;2022-12-10T08:15:13;29.65;;;20.63;;
10114;SDS011;5097;43.260;27.812;2022-12-10T08:17:58;39.03;;;21.67;;
10114;SDS011;5097;43.260;27.812;2022-12-10T08:20:42;35.13;;;20.25;;
10114;SDS011;5097;43.260;27.812;2022-12-10T08:23:26;39.42;;;21.25;;
10114;SDS011;5097;43.260;27.812;2022-12-10T08:26:12;38.63;;;22.15;;
10114;SDS011;5097;43.260;27.812;2022-12-10T08:28:58;41.22;;;28.08;;
10114;SDS011;5097;43.260;27.812;2022-12-10T08:31:42;42.28;;;27.35;;
10114;SDS011;5097;43.260;27.812;2022-12-10T08:34:27;36.60;;;21.38;;
10114;SDS011;5097;43.260;27.812;2022-12-10T08:37:11;39.78;;;27.17;;
10114;SDS011;5097;43.260;27.812;2022-12-10T08:39:55;32.22;;;18.20;;
10114;SDS011;5097;43.260;27.812;2022-12-10T08:42:39;30.30;;;15.68;;
10114;SDS011;5097;43.260;27.812;2022-12-10T08:45:22;25.55;;;13.73;;
10114;SDS011;5097;43.260;27.812;2022-12-10T08:48:06;27.90;;;14.85;;
10114;SDS011;5097;43.260;27.812;2022-12-10T08:50:52;33.25;;;20.80;;
10114;SDS011;5097;43.260;27.812;2022-12-10T08:53:36;28.20;;;13.50;;
10114;SDS011;5097;43.260;27.812;2022-12-10T08:56:20;27.08;;;11.80;;
10114;SDS011;5097;43.260;27.812;2022-12-10T08:59:06;24.45;;;12.10;;
10114;SDS011;5097;43.260;27.812;2022-12-10T09:01:51;24.98;;;11.90;;
10114;SDS011;5097;43.260;27.812;2022-12-10T09:04:37;28.52;;;12.43;;
10114;SDS011;5097;43.260;27.812;2022-12-10T09:07:23;25.95;;;12.40;;
10114;SDS011;5097;43.260;27.812;2022-12-10T09:10:08;28.90;;;15.85;;
10114;SDS011;5097;43.260;27.812;2022-12-10T09:12:54;45.60;;;23.13;;
10114;SDS011;5097;43.260;27.812;2022-12-10T09:15:48;30.73;;;18.63;;
10114;SDS011;5097;43.260;27.812;2022-12-10T09:18:33;22.80;;;10.50;;
10114;SDS011;5097;43.260;27.812;2022-12-10T09:21:18;18.50;;;11.13;;
10114;SDS011;5097;43.260;27.812;2022-12-10T09:24:04;21.77;;;10.63;;
10114;SDS011;5097;43.260;27.812;2022-12-10T09:26:48;22.77;;;11.45;;
10114;SDS011;5097;43.260;27.812;2022-12-10T09:29:32;21.25;;;10.93;;
10114;SDS011;5097;43.260;27.812;2022-12-10T09:32:17;19.58;;;11.18;;
10114;SDS011;5097;43.260;27.812;2022-12-10T09:35:01;22.27;;;10.55;;
10114;SDS011;5097;43.260;27.812;2022-12-10T09:37:45;21.42;;;11.32;;
10114;SDS011;5097;43.260;27.812;2022-12-10T09:40:32;23.38;;;12.48;;
10114;SDS011;5097;43.260;27.812;2022-12-10T09:43:22;26.95;;;12.45;;
10114;SDS011;5097;43.260;27.812;2022-12-10T09:46:39;22.17;;;10.93;;
10114;SDS011;5097;43.260;27.812;2022-12-10T09:49:33;26.98;;;16.10;;
10114;SDS011;5097;43.260;27.812;2022-12-10T09:52:27;30.77;;;19.83;;
10114;SDS011;5097;43.260;27.812;2022-12-10T09:55:17;31.70;;;17.88;;
10114;SDS011;5097;43.260;27.812;2022-12-10T09:58:08;40.72;;;23.42;;
10114;SDS011;5097;43.260;27.812;2022-12-10T10:01:00;20.08;;;10.50;;
10114;SDS011;5097;43.260;27.812;2022-12-10T10:03:46;29.50;;;17.52;;
10114;SDS011;5097;43.260;27.812;2022-12-10T10:06:30;23.98;;;13.13;;
10114;SDS011;5097;43.260;27.812;2022-12-10T10:09:14;25.90;;;13.43;;
10114;SDS011;5097;43.260;27.812;2022-12-10T10:12:00;28.70;;;15.02;;
10114;SDS011;5097;43.260;27.812;2022-12-10T10:14:51;36.05;;;18.48;;
10114;SDS011;5097;43.260;27.812;2022-12-10T10:17:36;23.20;;;13.05;;
10114;SDS011;5097;43.260;27.812;2022-12-10T10:20:20;19.33;;;10.30;;
10114;SDS011;5097;43.260;27.812;2022-12-10T10:23:05;20.73;;;10.18;;
10114;SDS011;5097;43.260;27.812;2022-12-10T10:25:49;19.50;;;9.88;;
10114;SDS011;5097;43.260;27.812;2022-12-10T10:28:33;45.92;;;25.02;;
10114;SDS011;5097;43.260;27.812;2022-12-10T10:31:20;22.30;;;10.45;;
10114;SDS011;5097;43.260;27.812;2022-12-10T10:34:11;20.02;;;9.85;;
10114;SDS011;5097;43.260;27.812;2022-12-10T10:36:58;21.20;;;11.27;;
10114;SDS011;5097;43.260;27.812;2022-12-10T10:39:46;56.38;;;12.70;;
10114;SDS011;5097;43.260;27.812;2022-12-10T10:42:34;21.65;;;8.60;;
10114;SDS011;5097;43.260;27.812;2022-12-10T10:45:36;15.95;;;7.65;;
10114;SDS011;5097;43.260;27.812;2022-12-10T10:48:26;19.00;;;8.45;;
10114;SDS011;5097;43.260;27.812;2022-12-10T10:51:15;13.82;;;6.65;;
10114;SDS011;5097;43.260;27.812;2022-12-10T10:54:05;17.95;;;6.63;;
10114;SDS011;5097;43.260;27.812;2022-12-10T10:56:49;16.33;;;6.50;;
10114;SDS011;5097;43.260;27.812;2022-12-10T10:59:34;14.77;;;6.85;;
10114;SDS011;5097;43.260;27.812;2022-12-10T11:02:20;17.85;;;7.13;;
10114;SDS011;5097;43.260;27.812;2022-12-10T11:05:15;16.83;;;6.72;;
10114;SDS011;5097;43.260;27.812;2022-12-10T11:08:05;14.20;;;7.80;;
10114;SDS011;5097;43.260;27.812;2022-12-10T11:10:59;11.10;;;6.05;;
10114;SDS011;5097;43.260;27.812;2022-12-10T11:13:46;21.98;;;7.78;;
10114;SDS011;5097;43.260;27.812;2022-12-10T11:16:30;17.70;;;6.55;;
10114;SDS011;5097;43.260;27.812;2022-12-10T11:19:18;14.38;;;6.55;;
10114;SDS011;5097;43.260;27.812;2022-12-10T11:22:19;14.25;;;6.68;;
10114;SDS011;5097;43.260;27.812;2022-12-10T11:25:10;13.75;;;6.95;;
10114;SDS011;5097;43.260;27.812;2022-12-10T11:27:55;16.75;;;6.75;;
10114;SDS011;5097;43.260;27.812;2022-12-10T11:30:45;16.13;;;7.10;;
10114;SDS011;5097;43.260;27.812;2022-12-10T11:33:38;17.20;;;7.65;;
10114;SDS011;5097;43.260;27.812;2022-12-10T11:36:36;14.38;;;6.72;;
10114;SDS011;5097;43.260;27.812;2022-12-10T11:39:46;20.02;;;7.18;;
10114;SDS011;5097;43.260;27.812;2022-12-10T11:42:42;16.98;;;6.72;;
10114;SDS011;5097;43.260;27.812;2022-12-10T11:45:41;21.33;;;6.93;;
10114;SDS011;5097;43.260;27.812;2022-12-10T11:48:37;15.50;;;6.80;;
10114;SDS011;5097;43.260;27.812;2022-12-10T11:51:32;14.52;;;6.75;;
10114;SDS011;5097;43.260;27.812;2022-12-10T11:54:26;14.68;;;6.43;;
10114;SDS011;5097;43.260;27.812;2022-12-10T11:57:27;22.35;;;7.82;;
10114;SDS011;5097;43.260;27.812;2022-12-10T12:00:19;16.83;;;7.60;;
10114;SDS011;5097;43.260;27.812;2022-12-10T12:03:15;15.68;;;6.22;;
10114;SDS011;5097;43.260;27.812;2022-12-10T12:09:35;17.77;;;6.95;;
10114;SDS011;5097;43.260;27.812;2022-12-10T12:12:30;13.35;;;6.05;;
10114;SDS011;5097;43.260;27.812;2022-12-10T12:15:22;19.42;;;7.00;;
10114;SDS011;5097;43.260;27.812;2022-12-10T12:18:13;19.17;;;6.72;;
10114;SDS011;5097;43.260;27.812;2022-12-10T12:21:05;13.02;;;5.63;;
10114;SDS011;5097;43.260;27.812;2022-12-10T12:23:54;15.27;;;6.50;;
10114;SDS011;5097;43.260;27.812;2022-12-10T12:26:46;14.07;;;6.40;;
10114;SDS011;5097;43.260;27.812;2022-12-10T12:29:39;13.20;;;7.18;;
10114;SDS011;5097;43.260;27.812;2022-12-10T12:32:29;15.88;;;6.22;;
10114;SDS011;5097;43.260;27.812;2022-12-10T12:35:30;11.80;;;6.85;;
10114;SDS011;5097;43.260;27.812;2022-12-10T12:38:26;14.82;;;6.03;;
10114;SDS011;5097;43.260;27.812;2022-12-10T12:41:13;16.52;;;7.10;;
10114;SDS011;5097;43.260;27.812;2022-12-10T12:44:00;17.10;;;6.65;;
10114;SDS011;5097;43.260;27.812;2022-12-10T12:46:53;13.75;;;6.57;;
10114;SDS011;5097;43.260;27.812;2022-12-10T12:49:37;18.83;;;6.68;;
10114;SDS011;5097;43.260;27.812;2022-12-10T12:52:26;16.85;;;6.90;;
10114;SDS011;5097;43.260;27.812;2022-12-10T12:55:17;16.38;;;6.82;;
10114;SDS011;5097;43.260;27.812;2022-12-10T12:58:11;11.30;;;6.80;;
10114;SDS011;5097;43.260;27.812;2022-12-10T13:01:06;13.48;;;6.57;;
10114;SDS011;5097;43.260;27.812;2022-12-10T13:04:00;13.38;;;6.80;;
10114;SDS011;5097;43.260;27.812;2022-12-10T13:10:18;17.15;;;7.18;;
10114;SDS011;5097;43.260;27.812;2022-12-10T13:13:22;21.77;;;8.10;;
10114;SDS011;5097;43.260;27.812;2022-12-10T13:19:31;13.38;;;7.10;;
10114;SDS011;5097;43.260;27.812;2022-12-10T13:28:48;17.33;;;7.30;;
10114;SDS011;5097;43.260;27.812;2022-12-10T13:31:34;20.67;;;7.80;;
10114;SDS011;5097;43.260;27.812;2022-12-10T13:34:21;17.70;;;9.20;;
10114;SDS011;5097;43.260;27.812;2022-12-10T13:37:18;19.35;;;9.35;;
10114;SDS011;5097;43.260;27.812;2022-12-10T13:40:15;19.75;;;8.38;;
10114;SDS011;5097;43.260;27.812;2022-12-10T13:43:20;21.00;;;8.57;;
10114;SDS011;5097;43.260;27.812;2022-12-10T13:46:28;20.27;;;8.55;;
10114;SDS011;5097;43.260;27.812;2022-12-10T13:49:15;19.00;;;9.00;;
10114;SDS011;5097;43.260;27.812;2022-12-10T13:52:02;24.05;;;9.55;;
10114;SDS011;5097;43.260;27.812;2022-12-10T13:54:58;19.13;;;8.82;;
10114;SDS011;5097;43.260;27.812;2022-12-10T13:58:09;20.48;;;8.68;;
10114;SDS011;5097;43.260;27.812;2022-12-10T14:01:10;19.45;;;9.68;;
10114;SDS011;5097;43.260;27.812;2022-12-10T14:04:01;22.85;;;10.55;;
10114;SDS011;5097;43.260;27.812;2022-12-10T14:06:59;20.60;;;9.77;;
10114;SDS011;5097;43.260;27.812;2022-12-10T14:09:45;41.78;;;22.02;;
10114;SDS011;5097;43.260;27.812;2022-12-10T14:12:34;26.77;;;13.95;;
10114;SDS011;5097;43.260;27.812;2022-12-10T14:15:21;34.80;;;17.02;;
10114;SDS011;5097;43.260;27.812;2022-12-10T14:18:09;34.22;;;17.40;;
10114;SDS011;5097;43.260;27.812;2022-12-10T14:20:56;39.50;;;23.67;;
10114;SDS011;5097;43.260;27.812;2022-12-10T14:23:43;87.43;;;58.97;;
10114;SDS011;5097;43.260;27.812;2022-12-10T14:26:37;58.28;;;33.38;;
10114;SDS011;5097;43.260;27.812;2022-12-10T14:29:22;44.87;;;27.60;;
10114;SDS011;5097;43.260;27.812;2022-12-10T14:32:11;47.10;;;28.08;;
10114;SDS011;5097;43.260;27.812;2022-12-10T14:34:57;63.13;;;42.47;;
10114;SDS011;5097;43.260;27.812;2022-12-10T14:37:43;67.70;;;39.75;;
10114;SDS011;5097;43.260;27.812;2022-12-10T14:40:30;35.67;;;19.53;;
10114;SDS011;5097;43.260;27.812;2022-12-10T14:43:19;32.25;;;17.52;;
10114;SDS011;5097;43.260;27.812;2022-12-10T14:46:12;34.50;;;19.17;;
10114;SDS011;5097;43.260;27.812;2022-12-10T14:48:57;24.90;;;13.75;;
10114;SDS011;5097;43.260;27.812;2022-12-10T14:51:42;35.13;;;19.20;;
10114;SDS011;5097;43.260;27.812;2022-12-10T14:54:27;31.57;;;16.40;;
10114;SDS011;5097;43.260;27.812;2022-12-10T14:57:15;42.10;;;18.95;;
10114;SDS011;5097;43.260;27.812;2022-12-10T15:00:04;28.73;;;15.83;;
10114;SDS011;5097;43.260;27.812;2022-12-10T15:02:53;33.60;;;16.60;;
10114;SDS011;5097;43.260;27.812;2022-12-10T15:05:39;31.08;;;18.17;;
10114;SDS011;5097;43.260;27.812;2022-12-10T15:08:23;32.65;;;19.73;;
10114;SDS011;5097;43.260;27.812;2022-12-10T15:11:10;37.47;;;18.83;;
10114;SDS011;5097;43.260;27.812;2022-12-10T15:13:58;47.10;;;27.33;;
10114;SDS011;5097;43.260;27.812;2022-12-10T15:16:44;41.40;;;26.97;;
10114;SDS011;5097;43.260;27.812;2022-12-10T15:19:32;37.33;;;23.90;;
10114;SDS011;5097;43.260;27.812;2022-12-10T15:22:18;35.40;;;17.87;;
10114;SDS011;5097;43.260;27.812;2022-12-10T15:25:12;31.83;;;16.43;;
10114;SDS011;5097;43.260;27.812;2022-12-10T15:28:03;26.30;;;15.20;;
10114;SDS011;5097;43.260;27.812;2022-12-10T15:30:47;31.85;;;22.13;;
10114;SDS011;5097;43.260;27.812;2022-12-10T15:33:40;33.50;;;15.32;;
10114;SDS011;5097;43.260;27.812;2022-12-10T15:36:32;25.33;;;12.70;;
10114;SDS011;5097;43.260;27.812;2022-12-10T15:39:20;33.73;;;16.80;;
10114;SDS011;5097;43.260;27.812;2022-12-10T15:42:07;26.87;;;14.40;;
10114;SDS011;5097;43.260;27.812;2022-12-10T15:44:54;23.63;;;12.70;;
10114;SDS011;5097;43.260;27.812;2022-12-10T15:47:41;27.85;;;16.30;;
10114;SDS011;5097;43.260;27.812;2022-12-10T15:50:25;34.87;;;20.13;;
10114;SDS011;5097;43.260;27.812;2022-12-10T15:53:14;38.97;;;16.07;;
10114;SDS011;5097;43.260;27.812;2022-12-10T15:56:05;24.97;;;13.93;;
10114;SDS011;5097;43.260;27.812;2022-12-10T15:58:49;27.50;;;15.33;;
10114;SDS011;5097;43.260;27.812;2022-12-10T16:01:33;26.40;;;14.23;;
10114;SDS011;5097;43.260;27.812;2022-12-10T16:04:17;33.57;;;16.30;;
10114;SDS011;5097;43.260;27.812;2022-12-10T16:07:01;41.50;;;26.93;;
10114;SDS011;5097;43.260;27.812;2022-12-10T16:09:47;33.57;;;19.67;;
10114;SDS011;5097;43.260;27.812;2022-12-10T16:12:31;41.07;;;21.03;;
10114;SDS011;5097;43.260;27.812;2022-12-10T16:15:22;33.83;;;20.83;;
10114;SDS011;5097;43.260;27.812;2022-12-10T16:18:08;24.00;;;12.13;;
10114;SDS011;5097;43.260;27.812;2022-12-10T16:20:53;32.13;;;19.67;;
10114;SDS011;5097;43.260;27.812;2022-12-10T16:23:37;37.20;;;20.47;;
10114;SDS011;5097;43.260;27.812;2022-12-10T16:26:23;26.47;;;16.30;;
10114;SDS011;5097;43.260;27.812;2022-12-10T16:29:07;25.90;;;13.50;;
10114;SDS011;5097;43.260;27.812;2022-12-10T16:31:52;42.67;;;31.17;;
10114;SDS011;5097;43.260;27.812;2022-12-10T16:34:36;30.17;;;15.63;;
10114;SDS011;5097;43.260;27.812;2022-12-10T16:37:21;24.00;;;14.43;;
10114;SDS011;5097;43.260;27.812;2022-12-10T16:40:05;32.70;;;19.80;;